sensor_id;sensor_type;location;lat;lon;timestamp;temperature;humidity
42365;DHT22;28498;54.400;18.566;2023-10-13T00:00:42;6.60;99.90
42365;DHT22;28498;54.400;18.566;2023-10-13T00:03:09;6.50;99.90
42365;DHT22;28498;54.400;18.566;2023-10-13T00:05:43;6.50;99.90
42365;DHT22;28498;54.400;18.566;2023-10-13T00:08:12;6.40;99.90
42365;DHT22;28498;54.400;18.566;2023-10-13T00:10:42;6.40;99.90
42365;DHT22;28498;54.400;18.566;2023-10-13T00:13:10;6.60;99.90
42365;DHT22;28498;54.400;18.566;2023-10-13T00:15:44;6.60;99.90
42365;DHT22;28498;54.400;18.566;2023-10-13T00:18:28;6.50;99.90
42365;DHT22;28498;54.400;18.566;2023-10-13T00:21:02;6.50;99.90
42365;DHT22;28498;54.400;18.566;2023-10-13T00:24:00;6.40;99.90
42365;DHT22;28498;54.400;18.566;2023-10-13T00:26:29;6.80;99.90
42365;DHT22;28498;54.400;18.566;2023-10-13T00:29:01;6.70;99.90
42365;DHT22;28498;54.400;18.566;2023-10-13T00:31:43;6.80;99.90
42365;DHT22;28498;54.400;18.566;2023-10-13T00:34:11;6.80;99.90
42365;DHT22;28498;54.400;18.566;2023-10-13T00:36:42;6.80;99.90
42365;DHT22;28498;54.400;18.566;2023-10-13T00:39:15;6.70;99.90
42365;DHT22;28498;54.400;18.566;2023-10-13T00:41:43;6.60;99.90
42365;DHT22;28498;54.400;18.566;2023-10-13T00:44:24;6.60;99.90
42365;DHT22;28498;54.400;18.566;2023-10-13T00:47:10;6.50;99.90
42365;DHT22;28498;54.400;18.566;2023-10-13T00:49:44;6.50;99.90
42365;DHT22;28498;54.400;18.566;2023-10-13T00:52:16;6.40;99.90
42365;DHT22;28498;54.400;18.566;2023-10-13T00:54:45;6.40;99.90
42365;DHT22;28498;54.400;18.566;2023-10-13T00:57:14;6.60;99.90
42365;DHT22;28498;54.400;18.566;2023-10-13T00:59:55;6.40;99.90
42365;DHT22;28498;54.400;18.566;2023-10-13T01:02:22;6.40;99.90
42365;DHT22;28498;54.400;18.566;2023-10-13T01:05:07;6.30;99.90
42365;DHT22;28498;54.400;18.566;2023-10-13T01:07:41;6.60;99.90
42365;DHT22;28498;54.400;18.566;2023-10-13T01:10:11;6.60;99.90
42365;DHT22;28498;54.400;18.566;2023-10-13T01:12:42;6.60;99.90
42365;DHT22;28498;54.400;18.566;2023-10-13T01:15:10;6.60;99.90
42365;DHT22;28498;54.400;18.566;2023-10-13T01:17:38;6.50;99.90
42365;DHT22;28498;54.400;18.566;2023-10-13T01:20:05;6.40;99.90
42365;DHT22;28498;54.400;18.566;2023-10-13T01:22:33;6.30;99.90
42365;DHT22;28498;54.400;18.566;2023-10-13T01:25:00;6.30;99.90
42365;DHT22;28498;54.400;18.566;2023-10-13T01:27:40;6.20;99.90
42365;DHT22;28498;54.400;18.566;2023-10-13T01:30:07;6.20;99.90
42365;DHT22;28498;54.400;18.566;2023-10-13T01:32:50;6.20;99.90
42365;DHT22;28498;54.400;18.566;2023-10-13T01:35:18;6.30;99.90
42365;DHT22;28498;54.400;18.566;2023-10-13T01:37:46;6.20;99.90
42365;DHT22;28498;54.400;18.566;2023-10-13T01:40:13;6.10;99.90
42365;DHT22;28498;54.400;18.566;2023-10-13T01:42:48;6.00;99.90
42365;DHT22;28498;54.400;18.566;2023-10-13T01:45:22;5.90;99.90
42365;DHT22;28498;54.400;18.566;2023-10-13T01:47:56;6.00;99.90
42365;DHT22;28498;54.400;18.566;2023-10-13T01:50:23;5.90;99.90
42365;DHT22;28498;54.400;18.566;2023-10-13T01:52:57;6.00;99.90
42365;DHT22;28498;54.400;18.566;2023-10-13T01:55:39;5.90;99.90
42365;DHT22;28498;54.400;18.566;2023-10-13T01:58:11;5.90;99.90
42365;DHT22;28498;54.400;18.566;2023-10-13T02:00:42;5.80;99.90
42365;DHT22;28498;54.400;18.566;2023-10-13T02:03:11;6.00;99.90
42365;DHT22;28498;54.400;18.566;2023-10-13T02:05:44;6.20;99.90
42365;DHT22;28498;54.400;18.566;2023-10-13T02:08:19;6.10;99.90
42365;DHT22;28498;54.400;18.566;2023-10-13T02:10:54;6.00;99.90
42365;DHT22;28498;54.400;18.566;2023-10-13T02:13:24;5.90;99.90
42365;DHT22;28498;54.400;18.566;2023-10-13T02:15:57;5.90;99.90
42365;DHT22;28498;54.400;18.566;2023-10-13T02:18:24;5.90;99.90
42365;DHT22;28498;54.400;18.566;2023-10-13T02:20:55;5.90;99.90
42365;DHT22;28498;54.400;18.566;2023-10-13T02:23:24;5.90;99.90
42365;DHT22;28498;54.400;18.566;2023-10-13T02:25:51;5.90;99.90
42365;DHT22;28498;54.400;18.566;2023-10-13T02:28:42;6.00;99.90
42365;DHT22;28498;54.400;18.566;2023-10-13T02:31:18;5.90;99.90
42365;DHT22;28498;54.400;18.566;2023-10-13T02:33:46;5.90;99.90
42365;DHT22;28498;54.400;18.566;2023-10-13T02:36:13;5.90;99.90
42365;DHT22;28498;54.400;18.566;2023-10-13T02:38:51;5.90;99.90
42365;DHT22;28498;54.400;18.566;2023-10-13T02:41:19;5.90;99.90
42365;DHT22;28498;54.400;18.566;2023-10-13T02:43:54;5.80;99.90
42365;DHT22;28498;54.400;18.566;2023-10-13T02:46:21;5.80;99.90
42365;DHT22;28498;54.400;18.566;2023-10-13T02:48:49;5.70;99.90
42365;DHT22;28498;54.400;18.566;2023-10-13T02:51:24;5.60;99.90
42365;DHT22;28498;54.400;18.566;2023-10-13T02:54:04;5.50;99.90
42365;DHT22;28498;54.400;18.566;2023-10-13T02:56:39;5.60;99.90
42365;DHT22;28498;54.400;18.566;2023-10-13T02:59:25;5.50;99.90
42365;DHT22;28498;54.400;18.566;2023-10-13T03:02:02;5.50;99.90
42365;DHT22;28498;54.400;18.566;2023-10-13T03:04:48;5.40;99.90
42365;DHT22;28498;54.400;18.566;2023-10-13T03:07:16;5.40;99.90
42365;DHT22;28498;54.400;18.566;2023-10-13T03:09:50;5.30;99.90
42365;DHT22;28498;54.400;18.566;2023-10-13T03:12:19;5.30;99.90
42365;DHT22;28498;54.400;18.566;2023-10-13T03:14:46;5.20;99.90
42365;DHT22;28498;54.400;18.566;2023-10-13T03:17:21;5.20;99.90
42365;DHT22;28498;54.400;18.566;2023-10-13T03:20:00;5.20;99.90
42365;DHT22;28498;54.400;18.566;2023-10-13T03:22:27;5.10;99.90
42365;DHT22;28498;54.400;18.566;2023-10-13T03:24:59;5.10;99.90
42365;DHT22;28498;54.400;18.566;2023-10-13T03:27:40;5.00;99.90
42365;DHT22;28498;54.400;18.566;2023-10-13T03:30:15;5.00;99.90
42365;DHT22;28498;54.400;18.566;2023-10-13T03:32:43;5.00;99.90
42365;DHT22;28498;54.400;18.566;2023-10-13T03:35:12;5.20;99.90
42365;DHT22;28498;54.400;18.566;2023-10-13T03:37:39;5.40;99.90
42365;DHT22;28498;54.400;18.566;2023-10-13T03:40:12;5.50;99.90
42365;DHT22;28498;54.400;18.566;2023-10-13T03:42:54;5.50;99.90
42365;DHT22;28498;54.400;18.566;2023-10-13T03:45:43;5.50;99.90
42365;DHT22;28498;54.400;18.566;2023-10-13T03:48:15;6.00;99.90
42365;DHT22;28498;54.400;18.566;2023-10-13T03:50:53;6.00;99.90
42365;DHT22;28498;54.400;18.566;2023-10-13T03:53:37;6.00;99.90
42365;DHT22;28498;54.400;18.566;2023-10-13T03:56:20;6.00;99.90
42365;DHT22;28498;54.400;18.566;2023-10-13T03:58:59;6.00;99.90
42365;DHT22;28498;54.400;18.566;2023-10-13T04:01:47;5.90;99.90
42365;DHT22;28498;54.400;18.566;2023-10-13T04:04:26;5.80;99.90
42365;DHT22;28498;54.400;18.566;2023-10-13T04:06:59;5.80;99.90
42365;DHT22;28498;54.400;18.566;2023-10-13T04:09:32;5.90;99.90
42365;DHT22;28498;54.400;18.566;2023-10-13T04:14:36;5.90;99.90
42365;DHT22;28498;54.400;18.566;2023-10-13T04:17:12;5.90;99.90
42365;DHT22;28498;54.400;18.566;2023-10-13T04:19:44;5.90;99.90
42365;DHT22;28498;54.400;18.566;2023-10-13T04:22:29;5.90;99.90
42365;DHT22;28498;54.400;18.566;2023-10-13T04:25:30;5.90;99.90
42365;DHT22;28498;54.400;18.566;2023-10-13T04:28:14;5.80;99.90
42365;DHT22;28498;54.400;18.566;2023-10-13T04:30:51;5.70;99.90
42365;DHT22;28498;54.400;18.566;2023-10-13T04:33:27;5.70;99.90
42365;DHT22;28498;54.400;18.566;2023-10-13T04:36:14;5.60;99.90
42365;DHT22;28498;54.400;18.566;2023-10-13T04:39:02;5.60;99.90
42365;DHT22;28498;54.400;18.566;2023-10-13T04:41:36;5.60;99.90
42365;DHT22;28498;54.400;18.566;2023-10-13T04:44:18;5.80;99.90
42365;DHT22;28498;54.400;18.566;2023-10-13T04:47:04;5.80;99.90
42365;DHT22;28498;54.400;18.566;2023-10-13T04:49:32;5.90;99.90
42365;DHT22;28498;54.400;18.566;2023-10-13T04:52:17;6.00;99.90
42365;DHT22;28498;54.400;18.566;2023-10-13T04:55:03;6.10;99.90
42365;DHT22;28498;54.400;18.566;2023-10-13T04:57:48;6.00;99.90
42365;DHT22;28498;54.400;18.566;2023-10-13T05:00:20;5.90;99.90
42365;DHT22;28498;54.400;18.566;2023-10-13T05:02:47;5.90;99.90
42365;DHT22;28498;54.400;18.566;2023-10-13T05:05:27;5.80;99.90
42365;DHT22;28498;54.400;18.566;2023-10-13T05:08:13;5.80;99.90
42365;DHT22;28498;54.400;18.566;2023-10-13T05:11:04;6.10;99.90
42365;DHT22;28498;54.400;18.566;2023-10-13T05:13:50;6.20;99.90
42365;DHT22;28498;54.400;18.566;2023-10-13T05:16:35;6.50;99.90
42365;DHT22;28498;54.400;18.566;2023-10-13T05:19:21;6.60;99.90
42365;DHT22;28498;54.400;18.566;2023-10-13T05:22:07;6.70;99.90
42365;DHT22;28498;54.400;18.566;2023-10-13T05:24:53;6.80;99.90
42365;DHT22;28498;54.400;18.566;2023-10-13T05:27:38;6.90;99.90
42365;DHT22;28498;54.400;18.566;2023-10-13T05:30:24;7.30;99.90
42365;DHT22;28498;54.400;18.566;2023-10-13T05:33:10;7.30;99.90
42365;DHT22;28498;54.400;18.566;2023-10-13T05:35:57;7.30;99.90
42365;DHT22;28498;54.400;18.566;2023-10-13T05:38:43;7.30;99.90
42365;DHT22;28498;54.400;18.566;2023-10-13T05:41:28;7.20;99.90
42365;DHT22;28498;54.400;18.566;2023-10-13T05:44:13;7.30;99.90
42365;DHT22;28498;54.400;18.566;2023-10-13T05:46:59;7.50;99.90
42365;DHT22;28498;54.400;18.566;2023-10-13T05:49:45;7.50;99.90
42365;DHT22;28498;54.400;18.566;2023-10-13T05:52:31;7.40;99.90
42365;DHT22;28498;54.400;18.566;2023-10-13T05:55:17;7.40;99.90
42365;DHT22;28498;54.400;18.566;2023-10-13T05:58:03;7.50;99.90
42365;DHT22;28498;54.400;18.566;2023-10-13T06:00:49;7.60;99.90
42365;DHT22;28498;54.400;18.566;2023-10-13T06:03:34;7.70;99.90
42365;DHT22;28498;54.400;18.566;2023-10-13T06:06:20;7.60;99.90
42365;DHT22;28498;54.400;18.566;2023-10-13T06:09:06;7.50;99.90
42365;DHT22;28498;54.400;18.566;2023-10-13T06:11:51;7.60;99.90
42365;DHT22;28498;54.400;18.566;2023-10-13T06:14:37;7.50;99.90
42365;DHT22;28498;54.400;18.566;2023-10-13T06:17:23;7.50;99.90
42365;DHT22;28498;54.400;18.566;2023-10-13T06:20:08;7.50;99.90
42365;DHT22;28498;54.400;18.566;2023-10-13T06:22:55;7.40;99.90
42365;DHT22;28498;54.400;18.566;2023-10-13T06:25:40;7.50;99.90
42365;DHT22;28498;54.400;18.566;2023-10-13T06:28:26;7.50;99.90
42365;DHT22;28498;54.400;18.566;2023-10-13T06:31:10;7.60;99.90
42365;DHT22;28498;54.400;18.566;2023-10-13T06:33:55;7.70;99.90
42365;DHT22;28498;54.400;18.566;2023-10-13T06:36:23;7.80;99.90
42365;DHT22;28498;54.400;18.566;2023-10-13T06:38:50;7.90;99.90
42365;DHT22;28498;54.400;18.566;2023-10-13T06:41:43;8.00;99.90
42365;DHT22;28498;54.400;18.566;2023-10-13T06:44:10;8.10;99.90
42365;DHT22;28498;54.400;18.566;2023-10-13T06:46:42;8.20;99.90
42365;DHT22;28498;54.400;18.566;2023-10-13T06:49:11;8.40;99.90
42365;DHT22;28498;54.400;18.566;2023-10-13T06:51:40;8.40;99.90
42365;DHT22;28498;54.400;18.566;2023-10-13T06:54:07;8.70;99.90
42365;DHT22;28498;54.400;18.566;2023-10-13T06:56:38;8.70;99.90
42365;DHT22;28498;54.400;18.566;2023-10-13T06:59:07;8.80;99.90
42365;DHT22;28498;54.400;18.566;2023-10-13T07:01:34;8.90;99.90
42365;DHT22;28498;54.400;18.566;2023-10-13T07:04:09;8.90;99.90
42365;DHT22;28498;54.400;18.566;2023-10-13T07:06:44;9.00;99.90
42365;DHT22;28498;54.400;18.566;2023-10-13T07:09:18;9.00;99.90
42365;DHT22;28498;54.400;18.566;2023-10-13T07:12:05;9.10;99.90
42365;DHT22;28498;54.400;18.566;2023-10-13T07:14:53;9.20;99.90
42365;DHT22;28498;54.400;18.566;2023-10-13T07:17:38;9.30;99.90
42365;DHT22;28498;54.400;18.566;2023-10-13T07:20:12;9.40;99.90
42365;DHT22;28498;54.400;18.566;2023-10-13T07:22:42;9.60;99.90
42365;DHT22;28498;54.400;18.566;2023-10-13T07:25:24;9.90;99.90
42365;DHT22;28498;54.400;18.566;2023-10-13T07:27:53;10.20;99.90
42365;DHT22;28498;54.400;18.566;2023-10-13T07:30:22;10.50;99.90
42365;DHT22;28498;54.400;18.566;2023-10-13T07:32:54;10.60;99.90
42365;DHT22;28498;54.400;18.566;2023-10-13T07:35:27;10.60;99.90
42365;DHT22;28498;54.400;18.566;2023-10-13T07:37:58;10.80;99.90
42365;DHT22;28498;54.400;18.566;2023-10-13T07:40:28;10.90;99.90
42365;DHT22;28498;54.400;18.566;2023-10-13T07:42:56;11.00;99.90
42365;DHT22;28498;54.400;18.566;2023-10-13T07:45:37;11.10;99.90
42365;DHT22;28498;54.400;18.566;2023-10-13T07:48:07;11.30;99.90
42365;DHT22;28498;54.400;18.566;2023-10-13T07:54:27;11.60;99.90
42365;DHT22;28498;54.400;18.566;2023-10-13T07:56:54;11.80;99.90
42365;DHT22;28498;54.400;18.566;2023-10-13T07:59:24;12.00;99.90
42365;DHT22;28498;54.400;18.566;2023-10-13T08:01:51;12.20;99.90
42365;DHT22;28498;54.400;18.566;2023-10-13T08:04:37;12.20;99.90
42365;DHT22;28498;54.400;18.566;2023-10-13T08:07:04;12.30;99.90
42365;DHT22;28498;54.400;18.566;2023-10-13T08:09:41;12.30;99.90
42365;DHT22;28498;54.400;18.566;2023-10-13T08:12:08;12.20;99.90
42365;DHT22;28498;54.400;18.566;2023-10-13T08:14:38;12.40;99.90
42365;DHT22;28498;54.400;18.566;2023-10-13T08:17:08;12.70;99.90
42365;DHT22;28498;54.400;18.566;2023-10-13T08:19:39;12.80;99.90
42365;DHT22;28498;54.400;18.566;2023-10-13T08:22:13;13.00;99.90
42365;DHT22;28498;54.400;18.566;2023-10-13T08:24:47;13.00;99.90
42365;DHT22;28498;54.400;18.566;2023-10-13T08:27:18;13.10;99.90
42365;DHT22;28498;54.400;18.566;2023-10-13T08:30:03;13.10;99.90
42365;DHT22;28498;54.400;18.566;2023-10-13T08:32:53;13.20;99.90
42365;DHT22;28498;54.400;18.566;2023-10-13T08:35:31;13.10;99.90
42365;DHT22;28498;54.400;18.566;2023-10-13T08:38:02;13.00;99.90
42365;DHT22;28498;54.400;18.566;2023-10-13T08:40:58;13.20;99.90
42365;DHT22;28498;54.400;18.566;2023-10-13T08:43:44;13.20;99.90
42365;DHT22;28498;54.400;18.566;2023-10-13T08:46:31;13.10;99.90
42365;DHT22;28498;54.400;18.566;2023-10-13T08:49:19;13.10;99.90
42365;DHT22;28498;54.400;18.566;2023-10-13T08:51:51;13.00;99.90
42365;DHT22;28498;54.400;18.566;2023-10-13T08:54:38;13.00;99.90
42365;DHT22;28498;54.400;18.566;2023-10-13T08:57:13;13.10;99.90
42365;DHT22;28498;54.400;18.566;2023-10-13T08:59:59;13.20;99.90
42365;DHT22;28498;54.400;18.566;2023-10-13T09:02:46;13.20;99.90
42365;DHT22;28498;54.400;18.566;2023-10-13T09:05:32;13.10;99.90
42365;DHT22;28498;54.400;18.566;2023-10-13T09:08:26;13.00;99.90
42365;DHT22;28498;54.400;18.566;2023-10-13T09:11:03;13.00;99.90
42365;DHT22;28498;54.400;18.566;2023-10-13T09:13:53;13.00;99.90
42365;DHT22;28498;54.400;18.566;2023-10-13T09:16:20;13.00;99.90
42365;DHT22;28498;54.400;18.566;2023-10-13T09:19:06;13.00;99.90
42365;DHT22;28498;54.400;18.566;2023-10-13T09:21:40;12.90;99.90
42365;DHT22;28498;54.400;18.566;2023-10-13T09:24:13;12.90;99.90
42365;DHT22;28498;54.400;18.566;2023-10-13T09:26:54;12.80;99.90
42365;DHT22;28498;54.400;18.566;2023-10-13T09:29:23;12.80;99.90
42365;DHT22;28498;54.400;18.566;2023-10-13T09:32:02;12.80;99.90
42365;DHT22;28498;54.400;18.566;2023-10-13T09:38:18;12.60;99.90
42365;DHT22;28498;54.400;18.566;2023-10-13T09:40:45;12.70;99.90
42365;DHT22;28498;54.400;18.566;2023-10-13T09:43:24;12.60;99.90
42365;DHT22;28498;54.400;18.566;2023-10-13T09:45:58;12.70;99.90
42365;DHT22;28498;54.400;18.566;2023-10-13T09:48:45;12.70;99.90
42365;DHT22;28498;54.400;18.566;2023-10-13T09:51:16;12.70;99.90
42365;DHT22;28498;54.400;18.566;2023-10-13T09:53:56;12.70;99.90
42365;DHT22;28498;54.400;18.566;2023-10-13T09:56:37;12.70;99.90
42365;DHT22;28498;54.400;18.566;2023-10-13T09:59:32;12.80;99.90
42365;DHT22;28498;54.400;18.566;2023-10-13T10:02:05;12.70;99.90
42365;DHT22;28498;54.400;18.566;2023-10-13T10:04:52;12.70;99.90
42365;DHT22;28498;54.400;18.566;2023-10-13T10:07:26;12.80;99.90
42365;DHT22;28498;54.400;18.566;2023-10-13T10:10:00;12.90;99.90
42365;DHT22;28498;54.400;18.566;2023-10-13T10:17:47;13.20;99.90
42365;DHT22;28498;54.400;18.566;2023-10-13T10:20:34;13.20;99.90
42365;DHT22;28498;54.400;18.566;2023-10-13T10:23:28;13.20;99.90
42365;DHT22;28498;54.400;18.566;2023-10-13T10:25:57;13.40;99.90
42365;DHT22;28498;54.400;18.566;2023-10-13T10:28:39;13.40;99.90
42365;DHT22;28498;54.400;18.566;2023-10-13T10:31:10;13.50;99.90
42365;DHT22;28498;54.400;18.566;2023-10-13T10:33:44;13.60;99.90
42365;DHT22;28498;54.400;18.566;2023-10-13T10:36:13;13.40;99.90
42365;DHT22;28498;54.400;18.566;2023-10-13T10:38:56;13.60;99.90
42365;DHT22;28498;54.400;18.566;2023-10-13T10:41:28;13.80;99.90
42365;DHT22;28498;54.400;18.566;2023-10-13T10:44:13;13.80;99.90
42365;DHT22;28498;54.400;18.566;2023-10-13T10:46:50;13.90;99.90
42365;DHT22;28498;54.400;18.566;2023-10-13T10:49:28;14.00;99.90
42365;DHT22;28498;54.400;18.566;2023-10-13T10:52:09;13.90;99.90
42365;DHT22;28498;54.400;18.566;2023-10-13T10:54:41;14.00;99.90
42365;DHT22;28498;54.400;18.566;2023-10-13T10:57:11;14.00;99.90
42365;DHT22;28498;54.400;18.566;2023-10-13T10:59:47;13.80;99.90
42365;DHT22;28498;54.400;18.566;2023-10-13T11:02:18;13.90;99.90
42365;DHT22;28498;54.400;18.566;2023-10-13T11:04:54;14.10;99.90
42365;DHT22;28498;54.400;18.566;2023-10-13T11:07:23;14.10;99.90
42365;DHT22;28498;54.400;18.566;2023-10-13T11:09:51;14.00;99.90
42365;DHT22;28498;54.400;18.566;2023-10-13T11:12:33;14.10;99.90
42365;DHT22;28498;54.400;18.566;2023-10-13T11:15:07;14.00;99.90
42365;DHT22;28498;54.400;18.566;2023-10-13T11:17:40;14.00;99.90
42365;DHT22;28498;54.400;18.566;2023-10-13T11:20:17;13.90;99.90
42365;DHT22;28498;54.400;18.566;2023-10-13T11:22:48;13.70;99.90
42365;DHT22;28498;54.400;18.566;2023-10-13T11:25:25;13.70;99.90
42365;DHT22;28498;54.400;18.566;2023-10-13T11:28:14;13.90;99.90
42365;DHT22;28498;54.400;18.566;2023-10-13T11:30:45;13.90;99.90
42365;DHT22;28498;54.400;18.566;2023-10-13T11:33:17;13.90;99.90
42365;DHT22;28498;54.400;18.566;2023-10-13T11:35:48;14.00;99.90
42365;DHT22;28498;54.400;18.566;2023-10-13T11:38:23;14.10;99.90
42365;DHT22;28498;54.400;18.566;2023-10-13T11:41:03;14.10;99.90
42365;DHT22;28498;54.400;18.566;2023-10-13T11:43:38;14.20;99.90
42365;DHT22;28498;54.400;18.566;2023-10-13T11:46:13;14.40;99.90
42365;DHT22;28498;54.400;18.566;2023-10-13T11:48:45;14.40;99.90
42365;DHT22;28498;54.400;18.566;2023-10-13T11:51:22;14.50;99.90
42365;DHT22;28498;54.400;18.566;2023-10-13T11:53:52;14.50;99.90
42365;DHT22;28498;54.400;18.566;2023-10-13T11:56:20;14.30;99.90
42365;DHT22;28498;54.400;18.566;2023-10-13T11:58:48;14.30;99.90
42365;DHT22;28498;54.400;18.566;2023-10-13T12:01:16;14.30;99.90
42365;DHT22;28498;54.400;18.566;2023-10-13T12:04:09;14.40;99.90
42365;DHT22;28498;54.400;18.566;2023-10-13T12:06:55;14.60;99.90
42365;DHT22;28498;54.400;18.566;2023-10-13T12:09:41;15.00;99.90
42365;DHT22;28498;54.400;18.566;2023-10-13T12:12:18;15.20;99.90
42365;DHT22;28498;54.400;18.566;2023-10-13T12:14:46;15.10;99.90
42365;DHT22;28498;54.400;18.566;2023-10-13T12:17:28;15.20;99.90
42365;DHT22;28498;54.400;18.566;2023-10-13T12:19:58;15.10;99.90
42365;DHT22;28498;54.400;18.566;2023-10-13T12:22:26;15.10;99.90
42365;DHT22;28498;54.400;18.566;2023-10-13T12:25:04;15.00;99.90
42365;DHT22;28498;54.400;18.566;2023-10-13T12:27:32;15.10;99.90
42365;DHT22;28498;54.400;18.566;2023-10-13T12:30:12;14.90;99.90
42365;DHT22;28498;54.400;18.566;2023-10-13T12:32:40;15.00;99.90
42365;DHT22;28498;54.400;18.566;2023-10-13T12:35:20;15.10;99.90
42365;DHT22;28498;54.400;18.566;2023-10-13T12:37:56;15.20;99.90
42365;DHT22;28498;54.400;18.566;2023-10-13T12:40:32;15.20;99.90
42365;DHT22;28498;54.400;18.566;2023-10-13T12:43:17;15.10;99.90
42365;DHT22;28498;54.400;18.566;2023-10-13T12:46:03;15.10;99.90
42365;DHT22;28498;54.400;18.566;2023-10-13T12:48:49;15.00;99.90
42365;DHT22;28498;54.400;18.566;2023-10-13T12:51:25;15.30;99.90
42365;DHT22;28498;54.400;18.566;2023-10-13T12:53:55;15.10;99.90
42365;DHT22;28498;54.400;18.566;2023-10-13T12:56:31;15.10;99.90
42365;DHT22;28498;54.400;18.566;2023-10-13T12:58:59;15.00;99.90
42365;DHT22;28498;54.400;18.566;2023-10-13T13:01:26;14.80;99.90
42365;DHT22;28498;54.400;18.566;2023-10-13T13:04:00;14.70;99.90
42365;DHT22;28498;54.400;18.566;2023-10-13T13:06:30;14.60;99.90
42365;DHT22;28498;54.400;18.566;2023-10-13T13:08:59;14.60;99.90
42365;DHT22;28498;54.400;18.566;2023-10-13T13:11:27;14.60;99.90
42365;DHT22;28498;54.400;18.566;2023-10-13T13:13:56;14.40;99.90
42365;DHT22;28498;54.400;18.566;2023-10-13T13:16:24;14.50;99.90
42365;DHT22;28498;54.400;18.566;2023-10-13T13:18:52;14.50;99.90
42365;DHT22;28498;54.400;18.566;2023-10-13T13:21:22;14.50;99.90
42365;DHT22;28498;54.400;18.566;2023-10-13T13:23:52;14.60;99.90
42365;DHT22;28498;54.400;18.566;2023-10-13T13:26:22;14.50;99.90
42365;DHT22;28498;54.400;18.566;2023-10-13T13:28:50;14.50;99.90
42365;DHT22;28498;54.400;18.566;2023-10-13T13:31:21;14.50;99.90
42365;DHT22;28498;54.400;18.566;2023-10-13T13:33:56;14.40;99.90
42365;DHT22;28498;54.400;18.566;2023-10-13T13:36:23;14.30;99.90
42365;DHT22;28498;54.400;18.566;2023-10-13T13:38:50;14.30;99.90
42365;DHT22;28498;54.400;18.566;2023-10-13T13:41:21;14.10;99.90
42365;DHT22;28498;54.400;18.566;2023-10-13T13:43:49;14.10;99.90
42365;DHT22;28498;54.400;18.566;2023-10-13T13:46:17;14.00;99.90
42365;DHT22;28498;54.400;18.566;2023-10-13T13:48:45;13.90;99.90
42365;DHT22;28498;54.400;18.566;2023-10-13T13:51:15;13.90;99.90
42365;DHT22;28498;54.400;18.566;2023-10-13T13:53:43;14.10;99.90
42365;DHT22;28498;54.400;18.566;2023-10-13T13:56:12;14.10;99.90
42365;DHT22;28498;54.400;18.566;2023-10-13T13:58:50;14.00;99.90
42365;DHT22;28498;54.400;18.566;2023-10-13T14:01:17;13.90;99.90
42365;DHT22;28498;54.400;18.566;2023-10-13T14:03:54;13.80;99.90
42365;DHT22;28498;54.400;18.566;2023-10-13T14:06:29;13.80;99.90
42365;DHT22;28498;54.400;18.566;2023-10-13T14:08:58;13.80;99.90
42365;DHT22;28498;54.400;18.566;2023-10-13T14:11:59;13.80;99.90
42365;DHT22;28498;54.400;18.566;2023-10-13T14:14:45;13.80;99.90
42365;DHT22;28498;54.400;18.566;2023-10-13T14:17:23;13.80;99.90
42365;DHT22;28498;54.400;18.566;2023-10-13T14:19:56;13.80;99.90
42365;DHT22;28498;54.400;18.566;2023-10-13T14:22:25;13.80;99.90
42365;DHT22;28498;54.400;18.566;2023-10-13T14:24:52;13.80;99.90
42365;DHT22;28498;54.400;18.566;2023-10-13T14:27:22;13.80;99.90
42365;DHT22;28498;54.400;18.566;2023-10-13T14:29:53;13.80;99.90
42365;DHT22;28498;54.400;18.566;2023-10-13T14:32:20;13.80;99.90
42365;DHT22;28498;54.400;18.566;2023-10-13T14:34:52;13.90;99.90
42365;DHT22;28498;54.400;18.566;2023-10-13T14:37:24;13.90;99.90
42365;DHT22;28498;54.400;18.566;2023-10-13T14:39:56;13.90;99.90
42365;DHT22;28498;54.400;18.566;2023-10-13T14:42:28;13.80;99.90
42365;DHT22;28498;54.400;18.566;2023-10-13T14:44:55;13.80;99.90
42365;DHT22;28498;54.400;18.566;2023-10-13T14:47:23;13.80;99.90
42365;DHT22;28498;54.400;18.566;2023-10-13T14:49:56;13.90;99.90
42365;DHT22;28498;54.400;18.566;2023-10-13T14:52:27;13.90;99.90
42365;DHT22;28498;54.400;18.566;2023-10-13T14:54:54;13.90;99.90
42365;DHT22;28498;54.400;18.566;2023-10-13T14:57:24;13.90;99.90
42365;DHT22;28498;54.400;18.566;2023-10-13T14:59:55;13.90;99.90
42365;DHT22;28498;54.400;18.566;2023-10-13T15:02:23;13.90;99.90
42365;DHT22;28498;54.400;18.566;2023-10-13T15:04:51;13.90;99.90
42365;DHT22;28498;54.400;18.566;2023-10-13T15:07:18;14.00;99.90
42365;DHT22;28498;54.400;18.566;2023-10-13T15:09:46;14.00;99.90
42365;DHT22;28498;54.400;18.566;2023-10-13T15:12:13;14.00;99.90
42365;DHT22;28498;54.400;18.566;2023-10-13T15:14:46;14.00;99.90
42365;DHT22;28498;54.400;18.566;2023-10-13T15:17:14;14.00;99.90
42365;DHT22;28498;54.400;18.566;2023-10-13T15:19:43;14.00;99.90
42365;DHT22;28498;54.400;18.566;2023-10-13T15:22:10;14.00;99.90
42365;DHT22;28498;54.400;18.566;2023-10-13T15:24:43;14.10;99.90
42365;DHT22;28498;54.400;18.566;2023-10-13T15:27:12;14.10;99.90
42365;DHT22;28498;54.400;18.566;2023-10-13T15:29:39;14.10;99.90
42365;DHT22;28498;54.400;18.566;2023-10-13T15:32:06;14.10;99.90
42365;DHT22;28498;54.400;18.566;2023-10-13T15:34:42;14.20;99.90
42365;DHT22;28498;54.400;18.566;2023-10-13T15:37:09;14.20;99.90
42365;DHT22;28498;54.400;18.566;2023-10-13T15:39:39;14.20;99.90
42365;DHT22;28498;54.400;18.566;2023-10-13T15:42:06;14.20;99.90
42365;DHT22;28498;54.400;18.566;2023-10-13T15:44:34;14.30;99.90
42365;DHT22;28498;54.400;18.566;2023-10-13T15:47:01;14.30;99.90
42365;DHT22;28498;54.400;18.566;2023-10-13T15:49:31;14.30;99.90
42365;DHT22;28498;54.400;18.566;2023-10-13T15:52:01;14.40;99.90
42365;DHT22;28498;54.400;18.566;2023-10-13T15:54:30;14.50;99.90
42365;DHT22;28498;54.400;18.566;2023-10-13T15:56:58;14.50;99.90
42365;DHT22;28498;54.400;18.566;2023-10-13T15:59:25;14.50;99.90
42365;DHT22;28498;54.400;18.566;2023-10-13T16:01:52;14.60;99.90
42365;DHT22;28498;54.400;18.566;2023-10-13T16:08:12;14.60;99.90
42365;DHT22;28498;54.400;18.566;2023-10-13T16:10:40;14.80;99.90
42365;DHT22;28498;54.400;18.566;2023-10-13T16:13:08;14.80;99.90
42365;DHT22;28498;54.400;18.566;2023-10-13T16:15:43;14.80;99.90
42365;DHT22;28498;54.400;18.566;2023-10-13T16:18:11;14.90;99.90
42365;DHT22;28498;54.400;18.566;2023-10-13T16:20:39;15.00;99.90
42365;DHT22;28498;54.400;18.566;2023-10-13T16:23:07;15.00;99.90
42365;DHT22;28498;54.400;18.566;2023-10-13T16:25:35;15.00;99.90
42365;DHT22;28498;54.400;18.566;2023-10-13T16:28:03;15.10;99.90
42365;DHT22;28498;54.400;18.566;2023-10-13T16:30:30;15.10;99.90